ADDS METAR Data INFO
IDs: Format: Raw Decoded Include TAF

Data at: 2251 UTC 22 Jun 2018

KAIB 222235Z AUTO 30014G19KT 10SM CLR 32/M10 A3004 RMK AO2
KAIB 222215Z AUTO 27014G21KT 10SM CLR 32/M10 A3004 RMK AO2
KAIB 222155Z AUTO 29016G23KT 10SM CLR 32/M10 A3004 RMK AO2
KAIB 222055Z AUTO 27014G25KT 10SM CLR 33/M10 A3005 RMK AO2
KAIB 222015Z AUTO 33016G26KT 283V353 10SM CLR 32/M09 A3006 RMK AO2
KAIB 221915Z AUTO 31004G22KT 10SM CLR 31/M08 A3007 RMK AO2
KAIB 221855Z AUTO 36009G14KT 343V043 10SM CLR 31/M08 A3008 RMK AO2
KAIB 221835Z AUTO 34006G20KT 10SM CLR 31/M09 A3008 RMK AO2
KAIB 221815Z AUTO 00000KT 10SM CLR 31/M09 A3009 RMK AO2
KAIB 221755Z AUTO 33004KT 10SM CLR 30/M08 A3010 RMK AO2
KAIB 221735Z AUTO 03005KT 10SM CLR 30/M07 A3011 RMK AO2
KAIB 221715Z AUTO 24004KT 10SM CLR 30/M06 A3011 RMK AO2
KAIB 221655Z AUTO 32005KT 10SM CLR 28/M05 A3011 RMK AO2
KAIB 221555Z AUTO 00000KT 10SM CLR 26/M10 A3013 RMK AO2
KAIB 221535Z AUTO 00000KT 10SM CLR 26/M10 A3013 RMK AO2
KAIB 221455Z AUTO 00000KT 10SM CLR 23/M10 A3013 RMK AO2
KAIB 221435Z AUTO 00000KT 10SM CLR 22/M11 A3013 RMK AO2
KAIB 221415Z AUTO 00000KT 10SM CLR 21/M11 A3013 RMK AO2
KAIB 221355Z AUTO 06003KT 10SM CLR 20/M10 A3013 RMK AO2
KAIB 221335Z AUTO 07005KT 10SM CLR 18/M10 A3012 RMK AO2
KAIB 221315Z AUTO 10005KT 10SM CLR 17/M10 A3011 RMK AO2
KAIB 221255Z AUTO 10003KT 10SM CLR 16/M10 A3011 RMK AO2
KAIB 221235Z AUTO 10004KT 10SM CLR 15/M10 A3010 RMK AO2
KAIB 221215Z AUTO 10006KT 10SM CLR 14/M10 A3010 RMK AO2
KAIB 221155Z AUTO 10005KT 10SM CLR 15/M10 A3008 RMK AO2
KAIB 221135Z AUTO 08005KT 10SM CLR 14/M10 A3008 RMK AO2
KAIB 221115Z AUTO 08005KT 10SM CLR 15/M10 A3008 RMK AO2
KAIB 221055Z AUTO 09007KT 10SM CLR 16/M11 A3007 RMK AO2
KAIB 221035Z AUTO 11008KT 10SM CLR 16/M10 A3006 RMK AO2
KAIB 221015Z AUTO 11011KT 10SM CLR 17/M11 A3005 RMK AO2
KAIB 220955Z AUTO 08010KT 10SM CLR 17/M11 A3005 RMK AO2
KAIB 220935Z AUTO 10011KT 10SM CLR 17/M11 A3005 RMK AO2
KAIB 220855Z AUTO 10010KT 10SM CLR 18/M11 A3004 RMK AO2
KAIB 220835Z AUTO 09010KT 10SM CLR 18/M11 A3005 RMK AO2
KAIB 220815Z AUTO 09011KT 10SM CLR 19/M11 A3004 RMK AO2
KAIB 220755Z AUTO 09010KT 10SM CLR 19/M11 A3004 RMK AO2
KAIB 220735Z AUTO 09009KT 10SM CLR 20/M10 A3004 RMK AO2
KAIB 220715Z AUTO 08011KT 10SM CLR 20/M10 A3004 RMK AO2
KAIB 220655Z AUTO 09007KT 10SM CLR 22/M11 A3005 RMK AO2
KAIB 220635Z AUTO 09008KT 10SM CLR 21/M10 A3005 RMK AO2
KAIB 220615Z AUTO 09008KT 10SM CLR 21/M10 A3005 RMK AO2
KAIB 220555Z AUTO 08011KT 10SM CLR 21/M10 A3006 RMK AO2
KAIB 220535Z AUTO 08009KT 10SM CLR 22/M10 A3006 RMK AO2
KAIB 220515Z AUTO 11006KT 10SM CLR 23/M10 A3007 RMK AO2
KAIB 220455Z AUTO 00000KT 10SM CLR 23/M10 A3007 RMK AO2
KAIB 220435Z AUTO 19003KT 10SM CLR 26/M10 A3007 RMK AO2
KAIB 220415Z AUTO 20003KT 10SM CLR 26/M10 A3007 RMK AO2
KAIB 220355Z AUTO 20004KT 10SM CLR 27/M10 A3006 RMK AO2
KAIB 220315Z AUTO 26004KT 10SM CLR 28/M11 A3005 RMK AO2
KAIB 220255Z AUTO 26004KT 10SM CLR 30/M11 A3005 RMK AO2
KAIB 220235Z AUTO 23010G19KT 10SM CLR 30/M11 A3005 RMK AO2
KAIB 220215Z AUTO 21011G15KT 10SM CLR 32/M11 A3005 RMK AO2
KAIB 220155Z AUTO 20013G20KT 10SM CLR 33/M10 A3005 RMK AO2
KAIB 220135Z AUTO 21015G19KT 10SM CLR 33/M09 A3005 RMK AO2
KAIB 220115Z AUTO 20011G15KT 10SM CLR 33/M07 A3005 RMK AO2
KAIB 220055Z AUTO 22013G16KT 10SM CLR 32/M07 A3005 RMK AO2
KAIB 220035Z AUTO 22010KT 10SM CLR 33/M07 A3006 RMK AO2
KAIB 220015Z AUTO 22007KT 10SM CLR 33/M06 A3007 RMK AO2
KAIB 212355Z AUTO 24013G18KT 10SM CLR 33/M06 A3007 RMK AO2
KAIB 212335Z AUTO 18006G16KT 10SM CLR 35/M06 A3008 RMK AO2
KAIB 212215Z AUTO 00000KT 10SM CLR 34/M08 A3011 RMK AO2
KAIB 212135Z AUTO 31003KT 10SM CLR 35/M09 A3013 RMK AO2
KAIB 212115Z AUTO 20013G17KT 10SM CLR 35/M09 A3014 RMK AO2
KAIB 212055Z AUTO 25008KT 233V293 10SM CLR 34/M09 A3014 RMK AO2
KAIB 212015Z AUTO 29016G21KT 10SM CLR 34/M10 A3016 RMK AO2
KAIB 211955Z AUTO 31007KT 263V023 10SM CLR 32/M10 A3017 RMK AO2
KAIB 211935Z AUTO 30013G20KT 10SM CLR 34/M10 A3018 RMK AO2
KAIB 211915Z AUTO 34006G14KT 10SM CLR 33/M10 A3019 RMK AO2
KAIB 211855Z AUTO 29008G16KT 263V333 10SM CLR 32/M08 A3020 RMK AO2
KAIB 211835Z AUTO 01006KT 10SM CLR 32/M07 A3020 RMK AO2
KAIB 211815Z AUTO 34004KT 10SM CLR 31/M06 A3021 RMK AO2
KAIB 211755Z AUTO 03003KT 10SM CLR 30/M04 A3022 RMK AO2
KAIB 211735Z AUTO 27005KT 10SM CLR 29/M04 A3022 RMK AO2
KAIB 211715Z AUTO 35006KT 10SM CLR 29/M02 A3023 RMK AO2
KAIB 211655Z AUTO 31003KT 10SM CLR 28/M02 A3023 RMK AO2
KAIB 211635Z AUTO 00000KT 10SM CLR 27/M03 A3024 RMK AO2
KAIB 211615Z AUTO 00000KT 10SM CLR 26/M02 A3025 RMK AO2
KAIB 211555Z AUTO 00000KT 10SM CLR 25/M03 A3025 RMK AO2
KAIB 211535Z AUTO 00000KT 10SM CLR 23/M03 A3026 RMK AO2
KAIB 211515Z AUTO 00000KT 10SM CLR 22/M02 A3026 RMK AO2
KAIB 211455Z AUTO 00000KT 10SM CLR 20/M02 A3027 RMK AO2
KAIB 211435Z AUTO 12003KT 10SM CLR 19/M02 A3027 RMK AO2
KAIB 211415Z AUTO 12003KT 10SM CLR 18/M01 A3027 RMK AO2
KAIB 211355Z AUTO 09004KT 10SM CLR 17/M01 A3027 RMK AO2
KAIB 211335Z AUTO 00000KT 10SM CLR 16/M02 A3027 RMK AO2
KAIB 211315Z AUTO 12004KT 10SM CLR 15/M02 A3027 RMK AO2
KAIB 211255Z AUTO 13004KT 10SM CLR 13/M02 A3026 RMK AO2
KAIB 211235Z AUTO 10003KT 10SM CLR 13/M01 A3026 RMK AO2
KAIB 211215Z AUTO 12003KT 10SM CLR 12/M01 A3025 RMK AO2
KAIB 211155Z AUTO 11006KT 10SM CLR 12/M01 A3025 RMK AO2
KAIB 211135Z AUTO 11004KT 10SM CLR 12/M02 A3024 RMK AO2
KAIB 211115Z AUTO 09005KT 10SM CLR 12/M02 A3023 RMK AO2
KAIB 211055Z AUTO 10006KT 10SM CLR 13/M02 A3023 RMK AO2